Time;durP1;ratioP1;P1;durP2;ratioP2;P2;SDS_P1;SDS_P2;PMS_P1;PMS_P2;Temp;Humidity;BMP_temperature;BMP_pressure;BME280_temperature;BME280_humidity;BME280_pressure;Samples;Min_cycle;Max_cycle;Signal;HPM_P1;HPM_P2
2023/03/31 00:01:40;;;;;;;3.23;1.70;;;12.60;99.90;;;;;;6003015;23;20450;-70
2023/03/31 00:04:11;;;;;;;3.47;1.70;;;12.70;99.90;;;;;;6002034;23;20450;-70
2023/03/31 00:06:40;;;;;;;3.40;1.88;;;12.70;99.90;;;;;;5996423;23;20519;-70
2023/03/31 00:09:11;;;;;;;3.63;1.80;;;12.70;99.90;;;;;;6002455;23;20192;-70
2023/03/31 00:11:39;;;;;;;3.50;1.60;;;12.70;99.90;;;;;;6001575;23;20882;-70
2023/03/31 00:14:07;;;;;;;4.17;2.40;;;12.60;99.90;;;;;;5994428;23;20194;-70
2023/03/31 00:16:34;;;;;;;3.10;1.80;;;12.50;99.90;;;;;;5993163;23;20557;-72
2023/03/31 00:19:01;;;;;;;4.22;1.90;;;12.50;99.90;;;;;;5995702;23;20481;-70
2023/03/31 00:21:32;;;;;;;2.30;1.73;;;12.40;99.90;;;;;;6000725;23;20198;-70
2023/03/31 00:24:01;;;;;;;4.47;1.83;;;12.40;99.90;;;;;;6000159;23;20607;-70
2023/03/31 00:26:30;;;;;;;5.75;1.80;;;12.30;99.90;;;;;;6002023;23;20210;-70
2023/03/31 00:28:58;;;;;;;4.55;1.90;;;12.40;99.90;;;;;;5998026;23;20275;-70
2023/03/31 00:31:26;;;;;;;3.97;1.77;;;12.40;99.90;;;;;;6003448;23;20284;-70
2023/03/31 00:33:54;;;;;;;3.55;1.70;;;12.40;99.90;;;;;;5998927;23;20213;-70
2023/03/31 00:36:26;;;;;;;5.30;1.80;;;12.40;99.90;;;;;;6002257;23;20762;-70
2023/03/31 00:38:53;;;;;;;3.00;1.70;;;12.40;99.90;;;;;;5999436;23;20844;-70
2023/03/31 00:41:21;;;;;;;3.30;1.60;;;12.40;99.90;;;;;;6004402;23;20273;-70
2023/03/31 00:44:08;;;;;;;2.77;1.70;;;12.40;99.90;;;;;;5997784;23;20508;-70
2023/03/31 00:46:40;;;;;;;6.00;1.83;;;12.40;99.90;;;;;;5994451;23;21141;-70
2023/03/31 00:49:15;;;;;;;3.27;2.17;;;12.40;99.90;;;;;;6000267;23;20505;-70
2023/03/31 00:51:43;;;;;;;4.10;1.95;;;12.40;99.90;;;;;;6003785;23;20464;-70
2023/03/31 00:54:10;;;;;;;2.80;1.90;;;12.40;99.90;;;;;;5996719;23;20252;-70
2023/03/31 00:56:41;;;;;;;4.50;1.90;;;12.60;99.90;;;;;;6002408;23;20501;-70
2023/03/31 00:59:13;;;;;;;5.03;2.10;;;12.30;99.90;;;;;;5989837;23;20527;-70
2023/03/31 01:01:42;;;;;;;5.47;2.10;;;12.20;99.90;;;;;;6001361;23;20441;-70
2023/03/31 01:04:11;;;;;;;5.25;1.90;;;12.20;99.90;;;;;;6000609;23;20489;-70
2023/03/31 01:06:49;;;;;;;4.53;1.65;;;12.20;99.90;;;;;;6002389;23;20197;-70
2023/03/31 01:09:16;;;;;;;3.88;1.70;;;12.10;99.90;;;;;;6002398;23;20189;-70
2023/03/31 01:11:45;;;;;;;4.28;2.13;;;12.10;99.90;;;;;;6003426;23;20237;-70
2023/03/31 01:14:14;;;;;;;4.70;2.13;;;12.20;99.90;;;;;;6000204;23;20713;-70
2023/03/31 01:16:41;;;;;;;3.80;2.20;;;12.20;99.90;;;;;;6000047;23;20540;-70
2023/03/31 01:19:15;;;;;;;4.67;2.03;;;12.30;99.90;;;;;;5993796;23;20190;-69
2023/03/31 01:22:24;;;;;;;4.63;2.00;;;12.50;99.90;;;;;;5999041;23;20434;-70
2023/03/31 01:25:31;;;;;;;2.60;1.60;;;12.70;99.90;;;;;;5993720;23;20904;-70
2023/03/31 01:28:13;;;;;;;3.60;1.73;;;12.90;99.90;;;;;;5947697;23;20437;-70
2023/03/31 01:31:09;;;;;;;4.10;1.98;;;13.00;99.90;;;;;;5995957;23;20592;-70
2023/03/31 01:34:14;;;;;;;2.77;1.53;;;13.10;99.90;;;;;;5988994;23;20294;-70
2023/03/31 01:37:05;;;;;;;4.53;1.93;;;12.80;99.90;;;;;;5998086;23;20469;-70
2023/03/31 01:40:00;;;;;;;4.03;1.80;;;13.10;99.90;;;;;;5997022;23;20960;-70
2023/03/31 01:42:34;;;;;;;4.53;2.03;;;13.10;99.90;;;;;;6000344;23;20447;-70
2023/03/31 01:45:11;;;;;;;4.10;1.90;;;13.10;99.90;;;;;;5993967;23;21045;-70
2023/03/31 01:47:43;;;;;;;3.93;2.23;;;13.10;99.90;;;;;;5995057;23;20476;-70
2023/03/31 01:50:21;;;;;;;4.60;1.70;;;13.10;99.90;;;;;;5984317;23;20922;-70
2023/03/31 01:52:56;;;;;;;6.17;1.90;;;13.00;99.90;;;;;;5998711;23;20480;-70
2023/03/31 01:55:29;;;;;;;4.80;2.00;;;13.00;99.90;;;;;;6004140;23;20448;-70
2023/03/31 01:58:03;;;;;;;4.37;1.80;;;13.00;99.90;;;;;;5989412;23;20480;-70
2023/03/31 02:00:33;;;;;;;5.20;1.73;;;12.90;99.90;;;;;;5999285;23;20429;-69
2023/03/31 02:03:06;;;;;;;3.75;1.95;;;12.90;99.90;;;;;;6000844;23;20308;-70
2023/03/31 02:05:38;;;;;;;3.83;1.80;;;12.80;99.90;;;;;;6002786;23;20210;-70
2023/03/31 02:08:10;;;;;;;4.82;1.65;;;12.70;99.90;;;;;;5992806;23;20231;-70
2023/03/31 02:10:41;;;;;;;6.10;1.83;;;12.70;99.90;;;;;;6001006;23;20219;-70
2023/03/31 02:13:11;;;;;;;2.97;1.60;;;12.70;99.90;;;;;;6001201;23;20564;-70
2023/03/31 02:15:42;;;;;;;3.50;1.80;;;12.70;99.90;;;;;;6002404;23;20803;-70
2023/03/31 02:18:15;;;;;;;4.10;1.40;;;12.70;99.90;;;;;;6001432;23;20526;-70
2023/03/31 02:20:46;;;;;;;3.10;1.70;;;12.60;99.90;;;;;;5989829;23;20181;-70
2023/03/31 02:23:16;;;;;;;3.13;1.40;;;12.60;99.90;;;;;;5998879;23;20819;-70
2023/03/31 02:25:49;;;;;;;3.88;1.50;;;12.50;99.90;;;;;;6004014;23;20275;-69
2023/03/31 02:28:20;;;;;;;3.58;1.40;;;12.40;99.90;;;;;;6001904;23;20209;-69
2023/03/31 02:30:54;;;;;;;3.30;1.33;;;12.30;99.90;;;;;;5998451;23;20269;-70
2023/03/31 02:33:21;;;;;;;3.33;1.80;;;12.10;99.90;;;;;;5998962;23;20726;-70
2023/03/31 02:35:49;;;;;;;4.03;1.60;;;12.00;99.90;;;;;;6000318;23;20233;-69
2023/03/31 02:38:15;;;;;;;5.15;1.80;;;11.90;99.90;;;;;;6001545;23;20555;-70
2023/03/31 02:40:42;;;;;;;2.88;1.73;;;11.80;99.90;;;;;;6000049;23;20203;-69
2023/03/31 02:43:11;;;;;;;3.17;1.55;;;11.70;99.90;;;;;;6001642;23;20194;-70
2023/03/31 02:45:43;;;;;;;3.70;1.92;;;11.70;99.90;;;;;;6003488;23;20241;-70
2023/03/31 02:48:14;;;;;;;3.15;1.58;;;11.60;99.90;;;;;;6007458;23;20178;-70
2023/03/31 02:51:07;;;;;;;4.10;2.00;;;11.70;99.90;;;;;;5990291;23;20595;-70
2023/03/31 02:53:47;;;;;;;4.35;2.17;;;11.70;99.90;;;;;;5990716;23;20543;-70
2023/03/31 02:56:33;;;;;;;1.58;1.30;;;11.80;99.90;;;;;;6002224;23;20234;-70
2023/03/31 02:59:24;;;;;;;5.40;2.20;;;11.70;99.90;;;;;;6001280;23;20198;-70
2023/03/31 03:02:07;;;;;;;3.28;1.80;;;11.80;99.90;;;;;;5998524;23;20216;-70
2023/03/31 03:05:01;;;;;;;3.25;2.00;;;11.80;99.90;;;;;;6002117;23;20221;-70
2023/03/31 03:07:36;;;;;;;3.20;2.00;;;11.70;99.90;;;;;;6001024;23;20693;-70
2023/03/31 03:10:08;;;;;;;3.83;1.85;;;11.70;99.90;;;;;;5998930;23;20308;-70
2023/03/31 03:12:44;;;;;;;4.00;1.98;;;11.90;99.90;;;;;;6000588;23;20301;-70
2023/03/31 03:15:17;;;;;;;4.97;2.00;;;11.60;99.90;;;;;;6004477;23;20206;-70
2023/03/31 03:17:46;;;;;;;3.97;2.38;;;11.60;99.90;;;;;;5993604;23;20194;-70
2023/03/31 03:20:15;;;;;;;5.22;2.10;;;11.60;99.90;;;;;;5997494;23;20190;-70
2023/03/31 03:22:43;;;;;;;6.25;2.30;;;11.50;99.90;;;;;;6002858;23;20186;-70
2023/03/31 03:25:12;;;;;;;4.78;2.30;;;11.50;99.90;;;;;;6001832;23;20245;-70
2023/03/31 03:27:40;;;;;;;4.68;1.80;;;11.50;99.90;;;;;;6001428;23;20277;-70
2023/03/31 03:30:10;;;;;;;2.83;2.47;;;11.40;99.90;;;;;;5997326;23;20198;-70
2023/03/31 03:32:40;;;;;;;2.97;1.50;;;11.40;99.90;;;;;;5997674;23;20570;-70
2023/03/31 03:35:08;;;;;;;3.80;2.00;;;11.30;99.90;;;;;;6001699;23;20210;-70
2023/03/31 03:37:35;;;;;;;4.80;2.10;;;11.30;99.90;;;;;;5991312;23;20208;-69
2023/03/31 03:40:02;;;;;;;4.03;2.15;;;11.30;99.90;;;;;;6002940;23;20185;-70
2023/03/31 03:42:29;;;;;;;4.65;2.10;;;11.20;99.90;;;;;;6001163;23;20655;-70
2023/03/31 03:44:56;;;;;;;4.90;2.33;;;11.20;99.90;;;;;;6000142;23;20296;-70
2023/03/31 03:47:23;;;;;;;3.38;2.25;;;11.20;99.90;;;;;;6002525;23;20222;-70
2023/03/31 03:49:52;;;;;;;4.88;2.50;;;11.20;99.90;;;;;;6004317;23;20224;-70
2023/03/31 03:52:19;;;;;;;4.18;2.22;;;11.10;99.90;;;;;;5999578;23;20240;-70
2023/03/31 03:54:46;;;;;;;3.08;2.45;;;11.10;99.90;;;;;;6001436;23;20214;-70
2023/03/31 03:57:13;;;;;;;4.95;2.30;;;11.10;99.90;;;;;;6000774;23;20190;-69
2023/03/31 03:59:40;;;;;;;5.60;2.55;;;11.10;99.90;;;;;;6002924;23;20585;-70
2023/03/31 04:02:07;;;;;;;4.78;2.85;;;11.10;99.90;;;;;;5995326;23;20281;-70
2023/03/31 04:04:34;;;;;;;5.03;2.55;;;11.10;99.90;;;;;;6002406;23;20210;-70
2023/03/31 04:07:02;;;;;;;4.30;2.30;;;11.10;99.90;;;;;;5998596;23;20482;-70
2023/03/31 04:09:30;;;;;;;4.28;2.88;;;11.00;99.90;;;;;;6002419;23;20601;-70
2023/03/31 04:11:57;;;;;;;4.10;2.10;;;11.00;99.90;;;;;;5989008;23;20225;-70
2023/03/31 04:14:24;;;;;;;4.03;2.88;;;11.00;99.90;;;;;;5989850;23;20221;-70
2023/03/31 04:16:55;;;;;;;3.72;2.30;;;10.90;99.90;;;;;;6002007;23;20190;-70
2023/03/31 04:19:24;;;;;;;3.55;2.40;;;10.80;99.90;;;;;;6003169;23;20194;-70
2023/03/31 04:22:01;;;;;;;3.83;2.30;;;10.80;99.90;;;;;;5996093;23;20191;-72
2023/03/31 04:24:31;;;;;;;3.40;2.50;;;10.70;99.90;;;;;;6001294;23;20210;-70
2023/03/31 04:26:59;;;;;;;4.78;2.60;;;10.60;99.90;;;;;;6002633;23;20191;-70
2023/03/31 04:29:27;;;;;;;3.25;2.15;;;10.60;99.90;;;;;;6005272;23;20248;-70
2023/03/31 04:31:57;;;;;;;3.60;2.30;;;10.60;99.90;;;;;;6000032;23;20658;-70
2023/03/31 04:34:33;;;;;;;2.83;2.25;;;10.60;99.90;;;;;;6002939;23;20298;-70
2023/03/31 04:37:02;;;;;;;3.25;2.63;;;10.60;99.90;;;;;;6003168;23;20273;-70
2023/03/31 04:39:31;;;;;;;5.32;2.70;;;10.60;99.90;;;;;;5999056;23;20556;-69
2023/03/31 04:41:59;;;;;;;3.72;2.30;;;10.60;99.90;;;;;;5982642;23;20269;-70
2023/03/31 04:44:26;;;;;;;4.93;3.10;;;10.60;99.90;;;;;;5985129;23;20202;-77
2023/03/31 04:46:54;;;;;;;6.55;2.95;;;10.70;99.90;;;;;;5998933;23;20606;-78
2023/03/31 04:49:21;;;;;;;5.03;2.80;;;10.70;99.90;;;;;;5991359;23;20193;-77
2023/03/31 04:51:48;;;;;;;4.80;3.13;;;10.80;99.90;;;;;;5998675;23;20198;-71
2023/03/31 04:54:15;;;;;;;3.65;2.50;;;10.80;99.90;;;;;;6000569;23;20316;-70
2023/03/31 04:56:44;;;;;;;5.50;3.40;;;10.80;99.90;;;;;;5992614;23;20194;-71
2023/03/31 04:59:11;;;;;;;3.42;2.65;;;10.80;99.90;;;;;;5992232;23;20278;-70
2023/03/31 05:01:43;;;;;;;6.00;3.10;;;10.90;99.90;;;;;;5997297;23;20638;-71
2023/03/31 05:04:10;;;;;;;3.97;2.85;;;10.90;99.90;;;;;;5997333;23;20213;-70
2023/03/31 05:06:37;;;;;;;5.63;3.00;;;10.90;99.90;;;;;;5996432;23;20273;-70
2023/03/31 05:09:05;;;;;;;4.90;3.00;;;11.00;99.90;;;;;;5997802;23;20186;-76
2023/03/31 05:11:32;;;;;;;4.45;3.15;;;10.90;99.90;;;;;;6002578;23;20245;-70
2023/03/31 05:14:01;;;;;;;6.93;3.60;;;10.90;99.90;;;;;;5992786;23;20248;-70
2023/03/31 05:16:28;;;;;;;7.13;3.42;;;10.90;99.90;;;;;;5999144;23;20265;-70
2023/03/31 05:18:55;;;;;;;4.07;3.15;;;10.90;99.90;;;;;;5995247;23;21990;-70
2023/03/31 05:21:22;;;;;;;9.00;4.60;;;10.90;99.90;;;;;;5999501;23;20546;-70
2023/03/31 05:23:50;;;;;;;5.90;3.55;;;10.80;99.90;;;;;;5991489;23;20191;-71
2023/03/31 05:26:17;;;;;;;7.45;4.10;;;10.80;99.90;;;;;;6002038;23;20186;-70
2023/03/31 05:28:44;;;;;;;4.95;4.00;;;10.70;99.90;;;;;;6003201;23;20187;-70
2023/03/31 05:31:14;;;;;;;6.22;4.50;;;10.60;99.90;;;;;;5992102;23;20265;-69
2023/03/31 05:33:41;;;;;;;4.45;3.80;;;10.50;99.90;;;;;;5967701;23;20580;-70
2023/03/31 05:36:10;;;;;;;7.25;4.25;;;10.30;99.90;;;;;;5996770;23;20246;-70
2023/03/31 05:38:36;;;;;;;7.30;4.93;;;10.20;99.90;;;;;;5981295;23;20237;-70
2023/03/31 05:41:05;;;;;;;7.38;5.30;;;10.20;99.90;;;;;;5989237;23;20262;-70
2023/03/31 05:43:32;;;;;;;5.20;4.15;;;10.10;99.90;;;;;;5997590;23;20690;-70
2023/03/31 05:45:59;;;;;;;9.35;4.93;;;10.00;99.90;;;;;;5991030;23;20509;-70
2023/03/31 05:48:27;;;;;;;9.43;4.68;;;10.00;99.90;;;;;;5986913;23;20286;-70
2023/03/31 05:50:57;;;;;;;6.75;5.07;;;9.90;99.90;;;;;;5986785;23;20188;-70
2023/03/31 05:53:24;;;;;;;9.73;5.45;;;9.80;99.90;;;;;;5995594;23;20214;-70
2023/03/31 05:55:57;;;;;;;8.45;5.35;;;9.70;99.90;;;;;;5994978;23;20285;-70
2023/03/31 05:58:24;;;;;;;10.07;5.80;;;9.70;99.90;;;;;;5999307;23;20574;-70
2023/03/31 06:01:00;;;;;;;9.73;5.35;;;9.60;99.90;;;;;;6004092;23;20654;-71
2023/03/31 06:03:28;;;;;;;10.45;5.90;;;9.60;99.90;;;;;;6000148;23;20191;-70
2023/03/31 06:05:55;;;;;;;9.88;5.82;;;9.60;99.90;;;;;;6003095;23;20212;-70
2023/03/31 06:08:22;;;;;;;8.68;5.55;;;9.60;99.90;;;;;;5998392;23;20186;-70
2023/03/31 06:10:49;;;;;;;9.07;5.85;;;9.80;99.90;;;;;;5989822;23;20272;-70
2023/03/31 06:13:16;;;;;;;10.27;6.07;;;9.50;99.90;;;;;;5990934;23;20217;-70
2023/03/31 06:15:44;;;;;;;6.53;5.30;;;9.50;99.90;;;;;;5990190;23;20233;-70
2023/03/31 06:18:11;;;;;;;7.15;5.60;;;9.40;99.90;;;;;;6002833;23;20629;-70
2023/03/31 06:20:41;;;;;;;8.23;6.25;;;9.40;99.90;;;;;;5999047;23;20319;-70
2023/03/31 06:23:08;;;;;;;9.00;6.00;;;9.40;99.90;;;;;;5992963;23;20189;-70
2023/03/31 06:25:38;;;;;;;12.05;6.15;;;9.40;99.90;;;;;;5992940;23;20774;-70
2023/03/31 06:28:06;;;;;;;9.90;6.32;;;9.40;99.90;;;;;;5998902;23;20523;-70
2023/03/31 06:30:33;;;;;;;8.05;6.53;;;9.40;99.90;;;;;;5994857;23;20200;-69
2023/03/31 06:33:00;;;;;;;11.88;6.60;;;9.40;99.90;;;;;;5998417;23;20219;-70
2023/03/31 06:35:27;;;;;;;11.38;7.07;;;9.40;99.90;;;;;;5996681;23;20232;-70
2023/03/31 06:37:56;;;;;;;7.78;6.40;;;9.40;99.90;;;;;;6000255;23;20225;-70
2023/03/31 06:40:23;;;;;;;8.10;6.78;;;9.40;99.90;;;;;;5994200;23;20212;-70
2023/03/31 06:42:50;;;;;;;10.10;6.65;;;9.40;99.90;;;;;;5994802;23;20197;-70
2023/03/31 06:45:17;;;;;;;12.40;7.93;;;9.40;99.90;;;;;;5997443;23;20237;-70
2023/03/31 06:47:44;;;;;;;12.45;8.20;;;9.40;99.90;;;;;;6000489;23;20217;-70
2023/03/31 06:50:11;;;;;;;9.70;8.25;;;9.40;99.90;;;;;;6003648;23;20272;-70
2023/03/31 06:52:39;;;;;;;10.23;8.13;;;9.40;99.90;;;;;;5990193;23;20729;-70
2023/03/31 06:55:09;;;;;;;12.32;7.70;;;9.40;99.90;;;;;;5991304;23;20202;-69
2023/03/31 06:57:36;;;;;;;8.68;7.28;;;9.40;99.90;;;;;;5991184;23;20277;-70
2023/03/31 07:00:04;;;;;;;9.77;7.18;;;9.40;99.90;;;;;;6003650;23;20260;-69
2023/03/31 07:02:31;;;;;;;14.93;8.82;;;9.40;99.90;;;;;;6000469;23;20236;-70
2023/03/31 07:04:58;;;;;;;14.18;8.82;;;9.40;99.90;;;;;;5992957;23;20289;-70
2023/03/31 07:07:25;;;;;;;11.38;8.80;;;9.40;99.90;;;;;;5987965;23;20647;-69
2023/03/31 07:09:52;;;;;;;11.10;8.70;;;9.40;99.90;;;;;;5994760;23;20748;-70
2023/03/31 07:12:21;;;;;;;14.57;9.50;;;9.40;99.90;;;;;;5994850;23;20189;-70
2023/03/31 07:14:48;;;;;;;12.68;8.85;;;9.40;99.90;;;;;;5996019;23;20221;-70
2023/03/31 07:17:15;;;;;;;9.32;8.52;;;9.40;99.90;;;;;;5994314;23;20229;-70
2023/03/31 07:19:46;;;;;;;10.15;8.30;;;9.40;99.90;;;;;;6005567;23;20189;-70
2023/03/31 07:22:14;;;;;;;9.65;8.00;;;9.70;99.90;;;;;;5991982;23;20186;-70
2023/03/31 07:24:42;;;;;;;9.52;8.13;;;9.40;99.90;;;;;;6002893;23;20210;-70
2023/03/31 07:27:09;;;;;;;12.45;8.30;;;9.50;99.90;;;;;;6006333;23;20606;-70
2023/03/31 07:29:38;;;;;;;10.02;7.68;;;9.50;99.90;;;;;;6007432;23;20197;-70
2023/03/31 07:32:05;;;;;;;11.45;8.07;;;9.50;99.90;;;;;;5996894;23;20193;-70
2023/03/31 07:34:32;;;;;;;9.55;7.07;;;9.50;99.90;;;;;;6004000;23;20293;-70
2023/03/31 07:36:59;;;;;;;6.60;6.00;;;9.60;99.90;;;;;;6004371;23;20206;-70
2023/03/31 07:39:26;;;;;;;6.30;4.47;;;9.60;99.90;;;;;;5997407;23;20189;-70
2023/03/31 07:41:53;;;;;;;6.25;3.30;;;9.70;99.90;;;;;;6005436;23;20261;-70
2023/03/31 07:44:22;;;;;;;6.68;3.05;;;9.70;99.90;;;;;;6002222;23;20206;-70
2023/03/31 07:46:50;;;;;;;4.35;3.03;;;9.80;99.90;;;;;;5994761;23;20208;-70
2023/03/31 07:49:17;;;;;;;3.72;2.78;;;9.90;99.90;;;;;;5995969;23;20182;-70
2023/03/31 07:51:44;;;;;;;2.25;2.10;;;10.00;99.90;;;;;;6004976;23;20210;-70
2023/03/31 07:54:11;;;;;;;2.00;1.80;;;10.30;99.90;;;;;;6004053;23;20678;-70
2023/03/31 07:56:38;;;;;;;4.07;1.98;;;10.60;99.90;;;;;;5999185;23;20192;-70
2023/03/31 07:59:05;;;;;;;1.67;1.58;;;10.80;99.90;;;;;;5999081;23;20658;-70
2023/03/31 08:01:33;;;;;;;1.83;1.70;;;10.90;99.90;;;;;;5998607;23;20200;-71
2023/03/31 08:04:02;;;;;;;2.10;1.30;;;11.20;99.90;;;;;;5997306;23;20233;-70
2023/03/31 08:06:30;;;;;;;1.77;1.63;;;11.50;99.90;;;;;;6001820;23;20586;-71
2023/03/31 08:08:57;;;;;;;2.05;1.30;;;11.80;99.90;;;;;;6001452;23;20240;-71
2023/03/31 08:11:25;;;;;;;1.87;1.40;;;12.10;99.90;;;;;;6002773;23;20594;-71
2023/03/31 08:13:53;;;;;;;1.43;1.20;;;12.40;99.90;;;;;;5987157;23;20468;-70
2023/03/31 08:16:20;;;;;;;1.80;1.30;;;12.60;99.90;;;;;;6002523;23;20453;-70
2023/03/31 08:18:47;;;;;;;1.63;1.10;;;12.80;99.90;;;;;;5997844;23;20802;-71
2023/03/31 08:21:15;;;;;;;2.33;1.17;;;12.90;99.90;;;;;;5996072;23;20467;-70
2023/03/31 08:23:43;;;;;;;2.53;1.37;;;13.10;99.90;;;;;;6001473;23;20530;-70
2023/03/31 08:26:11;;;;;;;2.77;1.50;;;13.20;99.90;;;;;;5999524;23;20958;-70
2023/03/31 08:28:38;;;;;;;1.50;1.20;;;13.30;99.90;;;;;;5999880;23;20456;-70
2023/03/31 08:31:06;;;;;;;2.20;1.40;;;13.50;99.90;;;;;;5998684;23;20452;-70
2023/03/31 08:33:34;;;;;;;2.00;1.37;;;13.80;99.90;;;;;;5989626;23;20479;-70
2023/03/31 08:36:07;;;;;;;2.10;1.20;;;13.90;99.90;;;;;;5991838;23;20441;-70
2023/03/31 08:38:37;;;;;;;2.73;1.40;;;13.90;99.90;;;;;;5984375;23;20468;-70
2023/03/31 08:41:07;;;;;;;3.97;1.40;;;14.00;99.90;;;;;;5991598;23;20520;-70
2023/03/31 08:43:40;;;;;;;1.80;1.30;;;14.30;99.90;;;;;;5993505;23;20515;-70
2023/03/31 08:46:12;;;;;;;2.60;1.33;;;14.30;99.90;;;;;;5992024;23;20444;-70
2023/03/31 08:48:44;;;;;;;3.00;1.30;;;14.40;99.90;;;;;;5999981;23;20556;-70
2023/03/31 08:51:15;;;;;;;2.40;1.07;;;14.40;99.90;;;;;;5987641;23;20444;-70
2023/03/31 08:53:50;;;;;;;3.27;1.60;;;14.60;99.90;;;;;;6001323;23;20500;-71
2023/03/31 08:56:21;;;;;;;2.10;1.60;;;14.70;99.90;;;;;;5994667;23;20921;-71
2023/03/31 08:58:50;;;;;;;1.90;1.23;;;14.80;99.90;;;;;;5994378;23;20437;-69
2023/03/31 09:01:26;;;;;;;2.77;1.50;;;14.80;99.90;;;;;;5992216;23;20473;-69
2023/03/31 09:04:13;;;;;;;3.20;1.37;;;14.80;99.90;;;;;;5987638;23;20816;-70
2023/03/31 09:06:47;;;;;;;4.60;1.63;;;15.00;99.90;;;;;;5996324;23;20437;-70
2023/03/31 09:09:25;;;;;;;2.70;1.60;;;15.00;99.90;;;;;;5988950;23;20441;-70
2023/03/31 09:11:56;;;;;;;3.63;1.60;;;14.90;99.90;;;;;;5997913;23;20432;-70
2023/03/31 09:14:33;;;;;;;3.63;1.73;;;14.90;99.90;;;;;;6000774;23;20500;-71
2023/03/31 09:17:12;;;;;;;3.40;1.83;;;15.20;99.90;;;;;;6002174;23;20440;-70
2023/03/31 09:19:44;;;;;;;3.80;1.77;;;15.10;99.90;;;;;;5996623;23;20456;-70
2023/03/31 09:22:15;;;;;;;2.83;1.27;;;15.30;99.90;;;;;;5988010;23;20898;-70
2023/03/31 09:24:52;;;;;;;1.77;1.40;;;15.60;99.90;;;;;;5993072;23;20469;-70
2023/03/31 09:27:20;;;;;;;2.13;1.37;;;15.60;99.90;;;;;;5991335;23;20785;-70
2023/03/31 09:29:51;;;;;;;3.27;1.60;;;15.70;99.90;;;;;;5995176;23;20445;-71
2023/03/31 09:32:21;;;;;;;2.43;1.57;;;15.70;99.90;;;;;;5984906;23;20941;-71
2023/03/31 09:34:52;;;;;;;3.10;1.70;;;15.70;99.90;;;;;;5999037;23;20567;-71
2023/03/31 09:37:19;;;;;;;4.40;2.00;;;15.40;99.90;;;;;;5993717;23;20425;-71
2023/03/31 09:39:48;;;;;;;2.30;1.57;;;15.60;99.90;;;;;;6000241;23;21023;-71
2023/03/31 09:42:15;;;;;;;2.60;1.47;;;15.90;99.90;;;;;;5999985;23;20464;-71
2023/03/31 09:44:44;;;;;;;2.77;1.80;;;16.20;99.90;;;;;;5990596;23;20455;-71
2023/03/31 09:47:15;;;;;;;6.50;1.70;;;16.30;99.90;;;;;;5995406;23;20753;-71
2023/03/31 09:49:46;;;;;;;3.70;1.67;;;16.20;99.90;;;;;;5993629;23;20736;-70
2023/03/31 09:52:20;;;;;;;4.20;1.53;;;16.00;99.90;;;;;;5994903;23;21001;-69
2023/03/31 09:54:51;;;;;;;2.60;1.63;;;15.90;99.90;;;;;;5992025;23;20480;-70
2023/03/31 09:57:25;;;;;;;4.73;1.53;;;15.80;99.90;;;;;;5998189;23;20615;-70
2023/03/31 09:59:53;;;;;;;3.20;1.40;;;15.90;99.90;;;;;;5992315;23;20520;-70
2023/03/31 10:02:39;;;;;;;3.73;1.40;;;16.00;99.90;;;;;;5993314;23;20472;-70
2023/03/31 10:05:17;;;;;;;5.30;1.90;;;15.70;99.90;;;;;;5989211;23;20436;-70
2023/03/31 10:07:45;;;;;;;4.57;1.73;;;15.90;99.90;;;;;;5991898;23;20786;-70
2023/03/31 10:10:32;;;;;;;3.87;1.60;;;16.20;99.90;;;;;;5991042;23;20564;-70
2023/03/31 10:13:07;;;;;;;3.67;1.60;;;16.40;99.90;;;;;;5994229;23;20453;-71
2023/03/31 10:15:37;;;;;;;3.03;1.40;;;16.50;99.90;;;;;;5992001;23;20518;-71
2023/03/31 10:18:04;;;;;;;4.43;1.73;;;17.00;99.90;;;;;;5999710;23;21199;-71
2023/03/31 10:20:36;;;;;;;2.30;1.37;;;16.90;99.90;;;;;;5991080;23;20763;-71
2023/03/31 10:23:10;;;;;;;4.30;1.60;;;17.00;99.90;;;;;;5999956;23;20492;-71
2023/03/31 10:25:39;;;;;;;4.70;1.60;;;16.90;99.90;;;;;;5997141;23;20446;-70
2023/03/31 10:28:11;;;;;;;4.80;1.50;;;16.50;99.90;;;;;;6000819;23;21007;-70
2023/03/31 10:30:39;;;;;;;4.50;1.60;;;16.00;99.90;;;;;;6002152;23;20429;-70
2023/03/31 10:33:13;;;;;;;3.33;1.60;;;15.70;99.90;;;;;;5989790;23;20465;-70
2023/03/31 10:35:41;;;;;;;2.50;1.40;;;15.50;99.90;;;;;;5996969;23;20555;-72
2023/03/31 10:38:13;;;;;;;4.77;1.50;;;15.40;99.90;;;;;;5999880;23;20434;-71
2023/03/31 10:40:49;;;;;;;3.07;1.40;;;15.40;99.90;;;;;;5984908;23;20465;-71
2023/03/31 10:43:19;;;;;;;5.50;1.60;;;15.50;99.90;;;;;;5995540;23;20457;-70
2023/03/31 10:45:48;;;;;;;3.03;1.37;;;15.50;99.90;;;;;;5998549;23;20434;-70
2023/03/31 10:48:19;;;;;;;3.97;1.30;;;15.20;99.90;;;;;;5991678;23;20440;-72
2023/03/31 10:50:48;;;;;;;4.10;1.73;;;14.90;99.90;;;;;;5995992;23;20519;-70
2023/03/31 10:53:17;;;;;;;2.83;1.57;;;15.10;99.90;;;;;;5994396;23;20465;-70
2023/03/31 10:55:54;;;;;;;4.77;1.73;;;14.90;99.90;;;;;;5984052;23;21040;-71
2023/03/31 10:58:42;;;;;;;3.53;1.20;;;15.40;99.90;;;;;;6000467;23;20472;-71
2023/03/31 11:01:21;;;;;;;2.67;1.10;;;15.40;99.90;;;;;;6000299;23;20847;-71
2023/03/31 11:04:04;;;;;;;2.70;1.50;;;15.80;99.90;;;;;;6000889;23;20457;-71
2023/03/31 11:06:39;;;;;;;4.50;1.80;;;16.00;99.90;;;;;;6001519;23;20499;-70
2023/03/31 11:09:21;;;;;;;2.43;1.63;;;16.00;99.90;;;;;;6000564;23;20961;-70
2023/03/31 11:12:05;;;;;;;4.07;1.50;;;15.70;99.90;;;;;;5998146;23;20438;-70
2023/03/31 11:14:46;;;;;;;4.77;1.47;;;15.40;99.90;;;;;;5995768;23;20484;-71
2023/03/31 11:17:25;;;;;;;3.40;1.33;;;15.00;99.90;;;;;;5989894;23;20472;-70
2023/03/31 11:19:59;;;;;;;5.40;1.88;;;13.90;99.90;;;;;;5996881;23;20441;-73
2023/03/31 11:22:34;;;;;;;2.78;1.20;;;12.80;99.90;;;;;;5989593;23;20198;-69
2023/03/31 11:25:16;;;;;;;3.63;1.10;;;11.90;99.90;;;;;;5992644;23;20193;-71
2023/03/31 11:28:00;;;;;;;2.00;1.00;;;11.40;99.90;;;;;;5995746;23;20194;-71
2023/03/31 11:30:32;;;;;;;3.72;0.95;;;10.50;99.90;;;;;;5986392;23;20272;-71
2023/03/31 11:33:23;;;;;;;2.65;0.85;;;9.80;99.90;;;;;;5996716;23;20220;-72
2023/03/31 11:36:04;;;;;;;2.08;0.63;;;9.30;99.90;;;;;;5996659;23;20215;-72
2023/03/31 11:38:58;;;;;;;1.48;0.60;;;9.10;99.90;;;;;;6001622;23;20613;-72
2023/03/31 11:41:34;;;;;;;1.00;0.68;;;8.90;99.90;;;;;;6000348;23;20606;-72
2023/03/31 11:44:04;;;;;;;1.00;0.52;;;8.90;99.90;;;;;;5998918;23;20294;-70
2023/03/31 11:46:39;;;;;;;2.60;0.60;;;9.00;99.90;;;;;;6002224;23;20231;-71
2023/03/31 11:49:12;;;;;;;1.63;0.77;;;9.00;99.90;;;;;;6003648;23;20196;-71
2023/03/31 11:51:44;;;;;;;1.50;0.77;;;9.00;99.90;;;;;;6002233;23;20224;-72
2023/03/31 11:54:18;;;;;;;1.00;0.60;;;9.10;99.90;;;;;;6002327;23;20255;-72
2023/03/31 11:56:46;;;;;;;2.40;0.93;;;9.20;99.90;;;;;;6000331;23;20193;-71
2023/03/31 11:59:17;;;;;;;2.28;0.80;;;9.40;99.90;;;;;;5992559;23;20204;-70
2023/03/31 12:01:50;;;;;;;2.25;0.85;;;9.50;99.90;;;;;;5983815;23;20274;-71
2023/03/31 12:04:29;;;;;;;1.83;0.93;;;9.60;99.90;;;;;;5995063;23;20746;-71
2023/03/31 12:07:04;;;;;;;1.30;0.63;;;10.00;99.90;;;;;;5998303;23;20277;-72
2023/03/31 12:09:38;;;;;;;1.77;1.05;;;9.90;99.90;;;;;;6003311;23;20199;-72
2023/03/31 12:12:10;;;;;;;1.23;0.70;;;10.00;99.90;;;;;;6000484;23;20712;-72
2023/03/31 12:14:43;;;;;;;0.90;0.70;;;10.20;99.90;;;;;;6000368;23;20253;-71
2023/03/31 12:17:13;;;;;;;0.90;0.70;;;10.50;99.90;;;;;;6004587;23;20197;-72
2023/03/31 12:19:48;;;;;;;1.17;0.80;;;11.10;99.90;;;;;;6002973;23;20232;-71
2023/03/31 12:22:19;;;;;;;1.20;0.80;;;11.60;99.90;;;;;;5992589;23;20182;-73
2023/03/31 12:24:47;;;;;;;1.00;0.53;;;12.10;99.90;;;;;;5999463;23;20454;-71
2023/03/31 12:27:18;;;;;;;1.17;0.57;;;12.70;99.90;;;;;;6003548;23;22606;-72
2023/03/31 12:29:53;;;;;;;1.20;0.60;;;13.00;99.90;;;;;;6001740;23;20442;-71
2023/03/31 12:32:24;;;;;;;1.57;0.67;;;13.00;99.90;;;;;;5992138;23;20442;-71
2023/03/31 12:34:56;;;;;;;2.00;0.83;;;13.30;99.90;;;;;;5986977;23;20486;-71
2023/03/31 12:37:47;;;;;;;1.80;0.80;;;13.00;99.90;;;;;;5994316;23;20927;-71
2023/03/31 12:40:23;;;;;;;1.70;0.87;;;13.00;99.90;;;;;;5998324;23;20529;-75
2023/03/31 12:43:02;;;;;;;1.10;0.70;;;13.30;99.90;;;;;;5998133;23;20463;-70
2023/03/31 12:45:31;;;;;;;2.10;0.80;;;13.70;99.90;;;;;;5989190;23;20462;-70
2023/03/31 12:48:25;;;;;;;1.53;1.03;;;14.00;99.90;;;;;;6001876;23;20528;-73
2023/03/31 12:51:06;;;;;;;3.17;0.93;;;14.30;99.90;;;;;;5999289;23;21000;-72
2023/03/31 12:53:49;;;;;;;2.10;0.80;;;14.40;99.90;;;;;;6000690;23;20483;-72
2023/03/31 12:56:16;;;;;;;1.97;1.10;;;14.60;99.90;;;;;;6000383;23;20571;-72
2023/03/31 12:58:44;;;;;;;2.33;0.90;;;15.00;99.90;;;;;;6004067;23;20449;-72
2023/03/31 13:01:15;;;;;;;3.73;1.10;;;15.00;99.90;;;;;;6004067;23;20442;-72
2023/03/31 13:03:51;;;;;;;3.83;1.23;;;15.20;99.90;;;;;;5982349;23;20457;-72
2023/03/31 13:06:54;;;;;;;2.90;1.30;;;15.50;99.90;;;;;;6000943;23;20460;-73
2023/03/31 13:09:45;;;;;;;4.60;1.50;;;15.80;99.90;;;;;;6003124;23;20433;-72
2023/03/31 13:12:20;;;;;;;3.90;1.47;;;15.70;99.90;;;;;;6000089;23;20469;-72